createdAt,value
2018-03-04T01:42:36.180Z,83.23
2018-03-04T01:42:36.678Z,83.14
2018-03-04T01:42:37.280Z,83.23
2018-03-04T01:42:37.880Z,83.33
2018-03-04T01:42:38.508Z,82.57
2018-03-04T01:42:39.076Z,83.23
2018-03-04T01:42:39.680Z,82.66
2018-03-04T01:43:34.145Z,82.85
2018-03-04T01:43:34.739Z,82.66
2018-03-04T01:43:35.339Z,82.76
2018-03-04T01:43:35.939Z,82.28
2018-03-04T01:43:36.538Z,82.66
2018-03-04T01:43:37.138Z,82.28
2018-03-04T01:43:37.740Z,82.66
2018-03-04T01:44:51.794Z,82.47
2018-03-04T01:44:52.361Z,82.66
2018-03-04T01:44:52.962Z,82.66
2018-03-04T01:44:53.560Z,82.57
2018-03-04T01:44:54.159Z,82.47
2018-03-04T01:44:54.759Z,82.66
2018-03-04T01:44:55.360Z,82.47
2018-03-04T01:45:49.314Z,82.57
2018-03-04T01:45:49.910Z,82.57
2018-03-04T01:45:50.512Z,82.66
2018-03-04T01:45:51.109Z,82.57
2018-03-04T01:45:51.709Z,82.28
2018-03-04T01:45:52.370Z,82.57
2018-03-04T01:45:52.909Z,82.28
2018-03-04T01:47:06.934Z,82.47
2018-03-04T01:47:07.529Z,82.47
2018-03-04T01:47:08.129Z,82.47
2018-03-04T01:47:08.729Z,82.47
2018-03-04T01:47:09.329Z,82.66
2018-03-04T01:47:09.928Z,82.57
2018-03-04T01:47:10.529Z,82.57
2018-03-04T01:48:04.483Z,82.76
2018-03-04T01:48:05.081Z,82.57
2018-03-04T01:48:05.683Z,82.57
2018-03-04T01:48:06.279Z,82.76
2018-03-04T01:48:06.880Z,82.95
2018-03-04T01:48:07.479Z,82.57
2018-03-04T01:48:08.079Z,82.76
2018-03-04T01:49:22.106Z,82.38
2018-03-04T01:49:22.700Z,82.19
2018-03-04T01:49:23.299Z,82.38
2018-03-04T01:49:23.900Z,82.38
2018-03-04T01:49:24.498Z,82.19
2018-03-04T01:49:25.100Z,82.19
2018-03-04T01:49:25.699Z,82.38
2018-03-04T01:50:19.780Z,82.38
2018-03-04T01:50:20.356Z,82.28
2018-03-04T01:50:20.951Z,82.19
2018-03-04T01:50:21.553Z,82.38
2018-03-04T01:50:22.151Z,82.28
2018-03-04T01:50:22.750Z,82.38
2018-03-04T01:50:23.349Z,82.38
2018-03-04T01:51:17.409Z,82.28
2018-03-04T01:51:18.006Z,82.47
2018-03-04T01:51:18.604Z,82.47
2018-03-04T01:51:19.205Z,82.38
2018-03-04T01:51:19.803Z,82.47
2018-03-04T01:51:20.407Z,82.28
2018-03-04T01:51:21.003Z,82.28
2018-03-04T01:52:15.059Z,82.10
2018-03-04T01:52:15.656Z,82.00
2018-03-04T01:52:16.257Z,82.10
2018-03-04T01:52:16.856Z,82.10
2018-03-04T01:52:17.454Z,82.66
2018-03-04T01:52:18.055Z,82.10
2018-03-04T01:52:18.656Z,82.00
2018-03-04T01:53:12.722Z,82.00
2018-03-04T01:53:13.308Z,82.00
2018-03-04T01:53:13.909Z,81.91
2018-03-04T01:53:14.508Z,81.91
2018-03-04T01:53:15.108Z,82.00
2018-03-04T01:53:15.709Z,82.00
2018-03-04T01:53:16.307Z,82.00
2018-03-04T01:54:10.364Z,82.00
2018-03-04T01:54:10.959Z,81.91
2018-03-04T01:54:11.560Z,82.00
2018-03-04T01:54:12.159Z,82.00
2018-03-04T01:54:12.760Z,81.91
2018-03-04T01:54:13.358Z,82.00
2018-03-04T01:54:13.959Z,81.81
2018-03-04T01:55:08.056Z,82.10
2018-03-04T01:55:08.618Z,81.91
2018-03-04T01:55:09.211Z,82.10
2018-03-04T01:55:09.812Z,82.10
2018-03-04T01:55:10.412Z,82.10
2018-03-04T01:55:11.011Z,81.72
2018-03-04T01:55:11.610Z,81.72
2018-03-04T01:56:05.667Z,82.00
2018-03-04T01:56:06.263Z,82.00
2018-03-04T01:56:06.864Z,81.81
2018-03-04T01:56:07.469Z,81.81
2018-03-04T01:56:08.062Z,81.91
2018-03-04T01:56:08.662Z,81.91
2018-03-04T01:56:09.263Z,81.91
2018-03-04T01:57:03.317Z,82.19
2018-03-04T01:57:03.915Z,82.19
2018-03-04T01:57:04.514Z,81.91
2018-03-04T01:57:05.114Z,82.28
2018-03-04T01:57:05.714Z,82.19
2018-03-04T01:57:06.314Z,82.19
2018-03-04T01:57:06.913Z,82.19
2018-03-04T01:58:00.970Z,81.81
2018-03-04T01:58:01.567Z,81.81
2018-03-04T01:58:02.166Z,81.81
2018-03-04T01:58:02.766Z,81.81
2018-03-04T01:58:03.366Z,81.81
2018-03-04T01:58:03.965Z,81.81
2018-03-04T01:58:04.573Z,81.81
2018-03-04T01:58:58.622Z,82.19
2018-03-04T01:58:59.218Z,82.19
2018-03-04T01:58:59.819Z,82.19
2018-03-04T01:59:00.418Z,81.43
2018-03-04T01:59:01.018Z,82.19
2018-03-04T01:59:01.618Z,81.43
2018-03-04T01:59:02.217Z,81.43
2018-03-04T01:59:56.272Z,81.91
2018-03-04T01:59:56.869Z,81.91
2018-03-04T01:59:57.474Z,81.91
2018-03-04T01:59:58.069Z,81.62
2018-03-04T01:59:58.670Z,81.81
2018-03-04T01:59:59.268Z,82.00
2018-03-04T01:59:59.869Z,82.00
2018-03-04T02:00:53.948Z,82.10
2018-03-04T02:00:54.524Z,82.10
2018-03-04T02:00:55.121Z,82.00
2018-03-04T02:00:55.720Z,81.91
2018-03-04T02:00:56.321Z,81.91
2018-03-04T02:00:56.921Z,81.81
2018-03-04T02:00:57.523Z,81.81
2018-03-04T02:01:51.577Z,81.91
2018-03-04T02:01:52.175Z,81.81
2018-03-04T02:01:52.773Z,81.91
2018-03-04T02:01:53.373Z,82.10
2018-03-04T02:01:53.973Z,82.00
2018-03-04T02:01:54.572Z,82.00
2018-03-04T02:01:55.173Z,82.10
2018-03-04T02:02:48.718Z,81.81
2018-03-04T02:02:49.314Z,81.34
2018-03-04T02:02:49.914Z,82.10
2018-03-04T02:02:50.515Z,81.91
2018-03-04T02:02:51.113Z,81.91
2018-03-04T02:02:51.714Z,81.53
2018-03-04T02:02:52.312Z,81.53
2018-03-04T02:02:52.918Z,81.43
2018-03-04T02:03:46.471Z,81.15
2018-03-04T02:03:47.068Z,81.15
2018-03-04T02:03:47.669Z,81.15
2018-03-04T02:03:48.271Z,81.05
2018-03-04T02:03:48.867Z,80.96
2018-03-04T02:03:49.469Z,81.05
2018-03-04T02:03:50.067Z,80.96
2018-03-04T02:03:50.668Z,80.96
2018-03-04T02:04:44.636Z,80.96
2018-03-04T02:04:45.232Z,81.34
2018-03-04T02:04:45.831Z,80.96
2018-03-04T02:04:46.431Z,81.34
2018-03-04T02:04:47.034Z,81.24
2018-03-04T02:04:47.630Z,81.24
2018-03-04T02:04:48.229Z,81.15
2018-03-04T02:06:02.279Z,81.24
2018-03-04T02:06:02.851Z,81.24
2018-03-04T02:06:03.451Z,81.15
2018-03-04T02:06:04.048Z,81.15
2018-03-04T02:06:04.649Z,81.15
2018-03-04T02:06:05.248Z,81.05
2018-03-04T02:06:05.849Z,81.15
2018-03-04T02:06:59.906Z,80.77
2018-03-04T02:07:00.504Z,80.87
2018-03-04T02:07:01.102Z,80.87
2018-03-04T02:07:01.702Z,80.87
2018-03-04T02:07:02.301Z,81.34
2018-03-04T02:07:02.902Z,80.87
2018-03-04T02:07:03.501Z,80.87
2018-03-04T02:07:57.574Z,81.05
2018-03-04T02:07:58.154Z,81.15
2018-03-04T02:07:58.754Z,81.15
2018-03-04T02:07:59.355Z,81.15
2018-03-04T02:07:59.955Z,81.05
2018-03-04T02:08:00.554Z,80.96
2018-03-04T02:08:01.153Z,81.15
2018-03-04T02:08:55.209Z,80.96
2018-03-04T02:08:55.805Z,81.15
2018-03-04T02:08:56.405Z,80.77
2018-03-04T02:08:57.006Z,80.96
2018-03-04T02:08:57.610Z,80.96
2018-03-04T02:08:58.205Z,81.15
2018-03-04T02:08:58.805Z,81.15
2018-03-04T02:09:52.859Z,80.68
2018-03-04T02:09:53.458Z,80.77
2018-03-04T02:09:54.059Z,80.87
2018-03-04T02:09:54.657Z,80.87
2018-03-04T02:09:55.258Z,80.58
2018-03-04T02:09:55.857Z,80.68
2018-03-04T02:09:56.458Z,80.77
2018-03-04T02:10:50.545Z,80.77
2018-03-04T02:10:51.110Z,81.15
2018-03-04T02:10:51.709Z,80.96
2018-03-04T02:10:52.308Z,81.24
2018-03-04T02:10:52.908Z,81.15
2018-03-04T02:10:53.512Z,81.24
2018-03-04T02:10:54.107Z,81.05
2018-03-04T02:11:48.164Z,80.77
2018-03-04T02:11:48.762Z,80.87
2018-03-04T02:11:49.365Z,80.68
2018-03-04T02:11:49.965Z,80.87
2018-03-04T02:11:50.561Z,80.77
2018-03-04T02:11:51.159Z,80.87
2018-03-04T02:11:51.760Z,80.87
2018-03-04T02:12:45.814Z,80.96
2018-03-04T02:12:46.412Z,80.87
2018-03-04T02:12:47.012Z,81.15
2018-03-04T02:12:47.612Z,80.77
2018-03-04T02:12:48.212Z,80.68
2018-03-04T02:12:48.817Z,80.58
2018-03-04T02:12:49.445Z,80.77
2018-03-04T02:13:43.466Z,80.96
2018-03-04T02:13:44.064Z,81.05
2018-03-04T02:13:44.664Z,81.15
2018-03-04T02:13:45.263Z,81.05
2018-03-04T02:13:45.862Z,81.15
2018-03-04T02:13:46.463Z,81.05
2018-03-04T02:13:47.062Z,81.34
2018-03-04T02:14:41.118Z,80.77
2018-03-04T02:14:41.718Z,80.77
2018-03-04T02:14:42.316Z,81.05
2018-03-04T02:14:42.915Z,80.96
2018-03-04T02:14:43.516Z,81.05
2018-03-04T02:14:44.116Z,81.24
2018-03-04T02:14:44.721Z,80.96
2018-03-04T02:15:38.772Z,81.43
2018-03-04T02:15:39.371Z,80.96
2018-03-04T02:15:39.967Z,81.24
2018-03-04T02:15:40.572Z,80.96
2018-03-04T02:15:41.168Z,81.24
2018-03-04T02:15:41.765Z,81.24
2018-03-04T02:15:42.365Z,81.24
2018-03-04T02:16:36.448Z,81.15
2018-03-04T02:16:37.017Z,81.15
2018-03-04T02:16:37.625Z,81.15
2018-03-04T02:16:38.220Z,81.43
2018-03-04T02:16:38.821Z,81.24
2018-03-04T02:16:39.418Z,81.24
2018-03-04T02:16:40.019Z,81.34
2018-03-04T02:17:34.074Z,80.77
2018-03-04T02:17:34.671Z,80.96
2018-03-04T02:17:35.271Z,80.96
2018-03-04T02:17:35.891Z,80.68
2018-03-04T02:17:36.470Z,80.96
2018-03-04T02:17:37.069Z,80.87
2018-03-04T02:17:37.673Z,80.87
2018-03-04T02:18:31.729Z,81.34
2018-03-04T02:18:32.330Z,81.24
2018-03-04T02:18:32.925Z,81.24
2018-03-04T02:18:33.525Z,81.24
2018-03-04T02:18:34.125Z,81.24
2018-03-04T02:18:34.726Z,81.24
2018-03-04T02:18:35.327Z,81.24
2018-03-04T02:19:29.378Z,81.05
2018-03-04T02:19:29.973Z,80.87
2018-03-04T02:19:30.575Z,80.87
2018-03-04T02:19:31.173Z,81.34
2018-03-04T02:19:31.775Z,80.96
2018-03-04T02:19:32.372Z,80.96
2018-03-04T02:19:32.974Z,81.34
2018-03-04T02:20:27.030Z,81.05
2018-03-04T02:20:27.629Z,81.05
2018-03-04T02:20:28.225Z,81.05
2018-03-04T02:20:28.827Z,81.05
2018-03-04T02:20:29.427Z,81.05
2018-03-04T02:20:30.025Z,81.05
2018-03-04T02:20:30.625Z,81.05
2018-03-04T02:21:24.716Z,81.15
2018-03-04T02:21:25.277Z,81.24
2018-03-04T02:21:25.876Z,81.15
2018-03-04T02:21:26.476Z,80.96
2018-03-04T02:21:27.076Z,81.15
2018-03-04T02:21:27.677Z,81.15
2018-03-04T02:21:28.276Z,81.34
2018-03-04T02:22:22.333Z,81.15
2018-03-04T02:22:22.929Z,81.24
2018-03-04T02:22:23.529Z,81.05
2018-03-04T02:22:24.127Z,80.96
2018-03-04T02:22:24.729Z,81.05
2018-03-04T02:22:25.337Z,81.15
2018-03-04T02:22:25.928Z,81.15
2018-03-04T02:23:19.984Z,80.77
2018-03-04T02:23:20.581Z,80.96
2018-03-04T02:23:21.181Z,80.68
2018-03-04T02:23:21.784Z,80.96
2018-03-04T02:23:22.380Z,80.77
2018-03-04T02:23:22.980Z,80.77
2018-03-04T02:23:23.580Z,80.68
2018-03-04T02:24:17.635Z,80.77
2018-03-04T02:24:18.234Z,80.77
2018-03-04T02:24:18.834Z,81.05
2018-03-04T02:24:19.432Z,81.05
2018-03-04T02:24:20.032Z,80.96
2018-03-04T02:24:20.630Z,81.05
2018-03-04T02:24:21.230Z,81.15
2018-03-04T02:25:15.288Z,81.24
2018-03-04T02:25:15.887Z,81.24
2018-03-04T02:25:16.483Z,81.15
2018-03-04T02:25:17.083Z,80.96
2018-03-04T02:25:17.684Z,81.24
2018-03-04T02:25:18.284Z,81.15
2018-03-04T02:25:18.885Z,81.34
2018-03-04T02:26:12.939Z,81.05
2018-03-04T02:26:13.536Z,80.96
2018-03-04T02:26:14.134Z,80.77
2018-03-04T02:26:14.735Z,81.24
2018-03-04T02:26:15.336Z,81.24
2018-03-04T02:26:15.939Z,80.87
2018-03-04T02:26:16.534Z,81.15
2018-03-04T02:27:10.623Z,81.24
2018-03-04T02:27:11.187Z,81.15
2018-03-04T02:27:11.788Z,81.05
2018-03-04T02:27:12.387Z,81.15
2018-03-04T02:27:12.987Z,81.15
2018-03-04T02:27:13.586Z,81.24
2018-03-04T02:27:14.185Z,81.15
2018-03-04T02:28:08.243Z,81.05
2018-03-04T02:28:08.839Z,80.96
2018-03-04T02:28:09.441Z,81.05
2018-03-04T02:28:10.044Z,81.05
2018-03-04T02:28:10.638Z,81.05
2018-03-04T02:28:11.237Z,81.43
2018-03-04T02:28:11.839Z,81.05
2018-03-04T02:29:05.894Z,81.24
2018-03-04T02:29:06.489Z,81.24
2018-03-04T02:29:07.091Z,80.87
2018-03-04T02:29:07.690Z,80.87
2018-03-04T02:29:08.292Z,80.87
2018-03-04T02:29:08.890Z,80.87
2018-03-04T02:29:09.489Z,80.96
2018-03-04T02:30:03.561Z,80.87
2018-03-04T02:30:04.198Z,80.87
2018-03-04T02:30:04.752Z,81.24
2018-03-04T02:30:05.356Z,80.77
2018-03-04T02:30:05.971Z,80.87
2018-03-04T02:30:06.559Z,80.87
2018-03-04T02:30:07.144Z,80.87
2018-03-04T02:31:01.198Z,80.77
2018-03-04T02:31:01.793Z,80.77
2018-03-04T02:31:02.393Z,81.05
2018-03-04T02:31:02.994Z,80.96
2018-03-04T02:31:03.594Z,80.87
2018-03-04T02:31:04.192Z,80.87
2018-03-04T02:31:04.793Z,80.77
2018-03-04T02:31:58.850Z,80.96
2018-03-04T02:31:59.483Z,81.15
2018-03-04T02:32:00.045Z,81.24
2018-03-04T02:32:00.646Z,81.15
2018-03-04T02:32:01.249Z,80.96
2018-03-04T02:32:01.845Z,80.77
2018-03-04T02:32:02.448Z,81.15
2018-03-04T02:32:56.527Z,81.24
2018-03-04T02:32:57.098Z,81.15
2018-03-04T02:32:57.697Z,81.15
2018-03-04T02:32:58.295Z,81.15
2018-03-04T02:32:58.896Z,81.15
2018-03-04T02:32:59.496Z,81.15
2018-03-04T02:33:00.097Z,81.24
2018-03-04T02:33:54.152Z,81.15
2018-03-04T02:33:54.756Z,81.15
2018-03-04T02:33:55.350Z,81.24
2018-03-04T02:33:55.948Z,81.24
2018-03-04T02:33:56.551Z,81.24
2018-03-04T02:33:57.150Z,81.24
2018-03-04T02:33:57.748Z,81.15
2018-03-04T02:34:51.805Z,81.15
2018-03-04T02:34:52.407Z,81.05
2018-03-04T02:34:53.000Z,81.15
2018-03-04T02:34:53.600Z,81.05
2018-03-04T02:34:54.202Z,81.05
2018-03-04T02:34:54.799Z,81.05
2018-03-04T02:34:55.399Z,81.05
2018-03-04T02:35:49.454Z,80.77
2018-03-04T02:35:50.052Z,80.96
2018-03-04T02:35:50.653Z,80.68
2018-03-04T02:35:51.254Z,80.87
2018-03-04T02:35:51.854Z,80.87
2018-03-04T02:35:52.461Z,80.77
2018-03-04T02:35:53.053Z,80.77
2018-03-04T02:36:48.031Z,80.77
2018-03-04T02:36:48.634Z,80.77
2018-03-04T02:36:49.226Z,80.77
2018-03-04T02:36:49.826Z,80.77
2018-03-04T02:36:50.428Z,81.05
2018-03-04T02:36:51.026Z,80.77
2018-03-04T02:37:45.612Z,80.87
2018-03-04T02:37:46.175Z,80.87
2018-03-04T02:37:46.775Z,81.15
2018-03-04T02:37:47.377Z,80.96
2018-03-04T02:37:47.974Z,81.34
2018-03-04T02:37:48.574Z,81.34
2018-03-04T02:37:49.177Z,80.87
2018-03-04T02:38:43.230Z,80.30
2018-03-04T02:38:43.826Z,81.15
2018-03-04T02:38:44.425Z,80.96
2018-03-04T02:38:45.026Z,80.58
2018-03-04T02:38:45.626Z,80.30
2018-03-04T02:38:46.226Z,80.68
2018-03-04T02:38:46.827Z,80.58
2018-03-04T02:39:40.370Z,81.05
2018-03-04T02:39:40.967Z,80.68
2018-03-04T02:57:32.430Z,82.47
2018-03-04T02:57:32.997Z,82.28
2018-03-04T02:57:33.602Z,82.47
2018-03-04T02:57:34.196Z,82.10
2018-03-04T02:57:34.796Z,82.38
2018-03-04T02:57:35.399Z,82.10
2018-03-04T02:57:36.004Z,82.47
2018-03-04T02:57:36.593Z,82.47
2018-03-04T02:58:30.564Z,82.57
2018-03-04T02:58:31.163Z,82.76
2018-03-04T02:58:31.761Z,82.76
2018-03-04T02:58:32.362Z,82.57
2018-03-04T02:58:32.960Z,82.57
2018-03-04T02:58:33.559Z,82.57
2018-03-04T02:58:34.157Z,82.57
2018-03-04T02:59:28.834Z,82.47
2018-03-04T02:59:29.426Z,82.57
2018-03-04T02:59:30.029Z,82.66
2018-03-04T02:59:30.627Z,82.57
2018-03-04T02:59:31.225Z,82.76
2018-03-04T02:59:31.826Z,82.57
2018-03-04T02:59:32.426Z,82.57
2018-03-04T03:00:26.409Z,82.57
2018-03-04T03:00:26.978Z,82.57
2018-03-04T03:00:27.578Z,82.57
2018-03-04T03:00:28.178Z,82.57
2018-03-04T03:00:28.786Z,82.76
2018-03-04T03:00:29.378Z,82.57
2018-03-04T03:00:29.986Z,82.57
2018-03-04T03:01:44.004Z,82.66
2018-03-04T03:01:44.596Z,82.57
2018-03-04T03:01:45.199Z,82.76
2018-03-04T03:01:45.797Z,82.57
2018-03-04T03:01:46.396Z,82.57
2018-03-04T03:01:46.996Z,82.57
2018-03-04T03:01:47.597Z,82.76
2018-03-04T03:02:41.551Z,82.57
2018-03-04T03:02:42.147Z,82.38
2018-03-04T03:02:42.748Z,82.28
2018-03-04T03:02:43.347Z,82.38
2018-03-04T03:02:43.947Z,82.38
2018-03-04T03:02:44.546Z,82.38
2018-03-04T03:02:45.144Z,82.57
2018-03-04T03:03:59.173Z,82.47
2018-03-04T03:03:59.768Z,82.76
2018-03-04T03:04:00.369Z,82.57
2018-03-04T03:04:00.963Z,82.47
2018-03-04T03:04:01.615Z,82.66
2018-03-04T03:04:02.166Z,82.66
2018-03-04T03:04:02.769Z,82.76
2018-03-04T03:04:56.829Z,82.28
2018-03-04T03:04:57.422Z,82.66
2018-03-04T03:04:58.023Z,82.38
2018-03-04T03:04:58.619Z,82.38
2018-03-04T03:04:59.221Z,82.28
2018-03-04T03:04:59.821Z,82.47
2018-03-04T03:05:00.419Z,82.47
2018-03-04T03:05:54.510Z,82.57
2018-03-04T03:05:55.075Z,82.57
2018-03-04T03:05:55.672Z,82.66
2018-03-04T03:05:56.272Z,82.76
2018-03-04T03:05:56.875Z,82.47
2018-03-04T03:05:57.526Z,82.38
2018-03-04T03:05:58.072Z,82.57
2018-03-04T03:06:52.125Z,82.38
2018-03-04T03:06:52.724Z,82.57
2018-03-04T03:06:53.324Z,82.76
2018-03-04T03:06:53.924Z,82.28
2018-03-04T03:06:54.522Z,82.76
2018-03-04T03:06:55.123Z,82.57
2018-03-04T03:06:55.723Z,82.38
2018-03-04T03:07:49.779Z,82.76
2018-03-04T03:07:50.376Z,82.66
2018-03-04T03:07:50.974Z,82.76
2018-03-04T03:07:51.575Z,82.85
2018-03-04T03:07:52.175Z,82.66
2018-03-04T03:07:52.780Z,82.76
2018-03-04T03:07:53.374Z,82.47
2018-03-04T03:08:47.430Z,82.47
2018-03-04T03:08:48.028Z,82.47
2018-03-04T03:08:48.627Z,82.95
2018-03-04T03:08:49.227Z,82.47
2018-03-04T03:08:49.827Z,82.57
2018-03-04T03:08:50.426Z,82.38
2018-03-04T03:08:51.025Z,82.47
2018-03-04T03:09:45.082Z,82.66
2018-03-04T03:09:45.678Z,82.57
2018-03-04T03:09:46.278Z,82.95
2018-03-04T03:09:46.879Z,82.47
2018-03-04T03:09:47.478Z,82.57
2018-03-04T03:09:48.077Z,82.66
2018-03-04T03:09:48.676Z,82.57
2018-03-04T03:10:42.733Z,82.47
2018-03-04T03:10:43.332Z,82.38
2018-03-04T03:10:43.931Z,82.47
2018-03-04T03:10:44.530Z,82.57
2018-03-04T03:10:45.130Z,82.38
2018-03-04T03:10:45.730Z,82.57
2018-03-04T03:10:46.330Z,82.57
2018-03-04T03:11:40.430Z,82.76
2018-03-04T03:11:40.987Z,82.57
2018-03-04T03:11:41.582Z,82.66
2018-03-04T03:11:42.182Z,82.38
2018-03-04T03:11:42.781Z,82.76
2018-03-04T03:11:43.382Z,82.28
2018-03-04T03:11:43.983Z,82.76
2018-03-04T03:12:38.036Z,82.76
2018-03-04T03:12:38.634Z,82.76
2018-03-04T03:12:39.233Z,82.76
2018-03-04T03:12:39.832Z,82.47
2018-03-04T03:12:40.433Z,82.85
2018-03-04T03:12:41.033Z,82.28
2018-03-04T03:12:41.632Z,82.66
2018-03-04T03:13:35.689Z,82.66
2018-03-04T03:13:36.286Z,82.66
2018-03-04T03:13:36.885Z,82.47
2018-03-04T03:13:37.486Z,82.76
2018-03-04T03:13:38.085Z,82.57
2018-03-04T03:13:38.684Z,82.57
2018-03-04T03:13:39.288Z,82.76
2018-03-04T03:14:33.342Z,82.66
2018-03-04T03:14:33.937Z,82.47
2018-03-04T03:14:34.537Z,82.66
2018-03-04T03:14:35.137Z,82.66
2018-03-04T03:14:35.736Z,82.47
2018-03-04T03:14:36.336Z,82.66
2018-03-04T03:14:36.936Z,82.47
2018-03-04T03:15:30.993Z,82.66
2018-03-04T03:15:31.590Z,82.47
2018-03-04T03:15:32.189Z,82.38
2018-03-04T03:15:32.788Z,82.38
2018-03-04T03:15:33.387Z,82.38
2018-03-04T03:15:33.989Z,82.66
2018-03-04T03:15:34.588Z,82.47
2018-03-04T03:16:28.643Z,82.57
2018-03-04T03:16:29.241Z,82.38
2018-03-04T03:16:29.841Z,82.57
2018-03-04T03:16:30.440Z,82.38
2018-03-04T03:16:31.041Z,82.66
2018-03-04T03:16:31.640Z,82.57
2018-03-04T03:16:32.240Z,82.38
2018-03-04T03:17:26.323Z,82.28
2018-03-04T03:17:26.891Z,82.38
2018-03-04T03:17:27.508Z,82.28
2018-03-04T03:17:28.092Z,82.57
2018-03-04T03:17:28.691Z,82.28
2018-03-04T03:17:29.291Z,82.38
2018-03-04T03:17:29.890Z,82.47
2018-03-04T03:18:23.948Z,82.66
2018-03-04T03:18:24.544Z,82.47
2018-03-04T03:18:25.144Z,82.76
2018-03-04T03:18:25.742Z,82.47
2018-03-04T03:18:26.346Z,82.76
2018-03-04T03:18:26.943Z,82.47
2018-03-04T03:18:27.543Z,82.66
2018-03-04T03:19:21.600Z,82.76
2018-03-04T03:19:22.196Z,82.66
2018-03-04T03:19:22.797Z,82.66
2018-03-04T03:19:23.396Z,82.66
2018-03-04T03:19:23.995Z,82.95
2018-03-04T03:19:24.596Z,82.95
2018-03-04T03:19:25.249Z,82.57
2018-03-04T03:20:19.251Z,82.66
2018-03-04T03:20:19.847Z,82.76
2018-03-04T03:20:20.447Z,82.57
2018-03-04T03:20:21.047Z,82.66
2018-03-04T03:20:21.647Z,82.57
2018-03-04T03:20:22.247Z,82.57
2018-03-04T03:20:22.845Z,82.66
2018-03-04T03:21:16.902Z,82.57
2018-03-04T03:21:17.499Z,82.57
2018-03-04T03:21:18.098Z,82.57
2018-03-04T03:21:18.699Z,82.76
2018-03-04T03:21:19.299Z,82.76
2018-03-04T03:21:19.898Z,82.76
2018-03-04T03:21:20.499Z,82.57
2018-03-04T03:22:14.588Z,82.76
2018-03-04T03:22:15.150Z,82.66
2018-03-04T03:22:15.752Z,82.66
2018-03-04T03:22:16.350Z,82.66
2018-03-04T03:22:16.951Z,82.57
2018-03-04T03:22:17.550Z,82.66
2018-03-04T03:22:18.149Z,82.66
2018-03-04T03:23:12.205Z,82.28
2018-03-04T03:23:12.804Z,82.47
2018-03-04T03:23:13.410Z,82.57
2018-03-04T03:23:14.007Z,82.57
2018-03-04T03:23:14.602Z,82.47
2018-03-04T03:23:15.205Z,82.66
2018-03-04T03:23:15.802Z,82.38
2018-03-04T03:24:09.859Z,82.66
2018-03-04T03:24:10.456Z,82.57
2018-03-04T03:24:11.053Z,82.57
2018-03-04T03:24:11.653Z,82.57
2018-03-04T03:24:12.255Z,82.57
2018-03-04T03:24:12.853Z,82.66
2018-03-04T03:24:13.452Z,82.76
2018-03-04T03:25:07.507Z,82.57
2018-03-04T03:25:08.105Z,82.76
2018-03-04T03:25:08.715Z,82.57
2018-03-04T03:25:09.304Z,82.57
2018-03-04T03:25:09.905Z,82.57
2018-03-04T03:25:10.504Z,82.76
2018-03-04T03:25:11.106Z,82.57
2018-03-04T03:26:05.159Z,82.66
2018-03-04T03:26:05.757Z,82.38
2018-03-04T03:26:06.359Z,82.38
2018-03-04T03:26:06.956Z,82.66
2018-03-04T03:26:07.556Z,82.57
2018-03-04T03:26:08.158Z,82.38
2018-03-04T03:26:08.757Z,82.66
2018-03-04T03:27:02.812Z,82.66
2018-03-04T03:27:03.409Z,82.76
2018-03-04T03:27:04.009Z,82.66
2018-03-04T03:27:04.608Z,82.57
2018-03-04T03:27:05.208Z,82.66
2018-03-04T03:27:05.810Z,82.76
2018-03-04T03:27:06.407Z,82.66
2018-03-04T03:28:00.497Z,82.47
2018-03-04T03:28:01.060Z,82.47
2018-03-04T03:28:01.661Z,82.38
2018-03-04T03:28:02.260Z,82.57
2018-03-04T03:28:02.860Z,82.47
2018-03-04T03:28:03.459Z,82.47
2018-03-04T03:28:04.058Z,82.47
2018-03-04T03:28:58.116Z,82.66
2018-03-04T03:28:58.711Z,82.47
2018-03-04T03:28:59.311Z,82.57
2018-03-04T03:28:59.913Z,82.76
2018-03-04T03:29:00.513Z,82.47
2018-03-04T03:29:01.111Z,82.66
2018-03-04T03:29:01.713Z,82.47
2018-03-04T03:29:55.767Z,82.57
2018-03-04T03:29:56.364Z,82.57
2018-03-04T03:29:56.964Z,82.57
2018-03-04T03:29:57.562Z,82.57
2018-03-04T03:29:58.162Z,82.57
2018-03-04T03:29:58.763Z,82.57
2018-03-04T03:29:59.364Z,82.57
2018-03-04T03:30:53.424Z,82.66
2018-03-04T03:30:54.069Z,82.57
2018-03-04T03:30:54.676Z,82.57
2018-03-04T03:30:55.279Z,82.95
2018-03-04T03:30:55.826Z,82.95
2018-03-04T03:30:56.434Z,82.76
2018-03-04T03:30:57.054Z,82.95
2018-03-04T03:31:51.071Z,82.10
2018-03-04T03:31:51.667Z,82.19
2018-03-04T03:31:52.266Z,82.10
2018-03-04T03:31:52.866Z,82.28
2018-03-04T03:31:53.466Z,82.28
2018-03-04T03:31:54.066Z,82.38
2018-03-04T03:31:54.666Z,82.28
2018-03-04T03:32:48.722Z,82.66
2018-03-04T03:32:49.318Z,82.95
2018-03-04T03:32:49.918Z,82.66
2018-03-04T03:32:50.520Z,82.95
2018-03-04T03:32:51.127Z,82.95
2018-03-04T03:32:51.716Z,82.85
2018-03-04T03:32:52.317Z,82.47
2018-03-04T03:33:46.407Z,82.28
2018-03-04T03:33:46.969Z,82.28
2018-03-04T03:33:47.571Z,82.47
2018-03-04T03:33:48.170Z,82.47
2018-03-04T03:33:48.770Z,82.47
2018-03-04T03:33:49.373Z,82.19
2018-03-04T03:33:49.970Z,82.28
2018-03-04T03:34:44.026Z,82.47
2018-03-04T03:34:44.622Z,82.47
2018-03-04T03:34:45.221Z,82.76
2018-03-04T03:34:45.820Z,82.57
2018-03-04T03:34:46.421Z,82.76
2018-03-04T03:34:47.022Z,82.76
2018-03-04T03:34:47.620Z,82.76
2018-03-04T03:35:41.676Z,82.57
2018-03-04T03:35:42.273Z,82.38
2018-03-04T03:35:42.872Z,82.57
2018-03-04T03:35:43.472Z,82.38
2018-03-04T03:35:44.073Z,82.66
2018-03-04T03:35:44.672Z,82.57
2018-03-04T03:35:45.272Z,82.47
2018-03-04T03:36:39.330Z,82.66
2018-03-04T03:36:39.925Z,82.47
2018-03-04T03:36:40.525Z,82.66
2018-03-04T03:36:41.126Z,82.66
2018-03-04T03:36:41.724Z,82.47
2018-03-04T03:36:42.324Z,82.66
2018-03-04T03:36:42.924Z,82.38
2018-03-04T03:37:36.982Z,82.57
2018-03-04T03:37:37.577Z,82.57
2018-03-04T03:37:38.178Z,82.38
2018-03-04T03:37:38.776Z,82.57
2018-03-04T03:37:39.376Z,82.57
2018-03-04T03:37:39.976Z,82.47
2018-03-04T03:37:40.574Z,82.47
2018-03-04T03:38:34.633Z,82.28
2018-03-04T03:38:35.229Z,82.47
2018-03-04T03:38:35.838Z,82.28
2018-03-04T03:38:36.431Z,82.57
2018-03-04T03:38:37.027Z,82.28
2018-03-04T03:38:37.628Z,82.47
2018-03-04T03:38:38.227Z,82.47
2018-03-04T03:39:32.310Z,82.66
2018-03-04T03:39:32.880Z,82.66
2018-03-04T03:39:33.482Z,82.76
2018-03-04T03:39:34.079Z,82.76
2018-03-04T03:39:34.679Z,82.76
2018-03-04T03:39:35.279Z,82.66
2018-03-04T03:39:35.880Z,82.57
2018-03-04T03:40:29.933Z,82.57
2018-03-04T03:40:30.530Z,82.57
2018-03-04T03:40:31.133Z,82.47
2018-03-04T03:40:31.730Z,82.57
2018-03-04T03:40:32.331Z,82.57
2018-03-04T03:40:32.930Z,82.57
2018-03-04T03:40:33.529Z,82.38
2018-03-04T03:41:27.587Z,82.57
2018-03-04T03:41:28.187Z,82.47
2018-03-04T03:41:28.785Z,82.57
2018-03-04T03:41:29.383Z,82.57
2018-03-04T03:41:29.982Z,82.57
2018-03-04T03:41:30.583Z,82.38
2018-03-04T03:41:31.183Z,82.38
2018-03-04T03:42:25.236Z,82.76
2018-03-04T03:42:25.836Z,82.76
2018-03-04T03:42:26.439Z,82.85
2018-03-04T03:42:27.035Z,82.85
2018-03-04T03:42:27.635Z,82.66
2018-03-04T03:42:28.234Z,82.85
2018-03-04T03:42:28.835Z,82.57
2018-03-04T03:43:22.900Z,83.42
2018-03-04T03:43:23.487Z,83.42
2018-03-04T03:43:24.086Z,83.42
2018-03-04T03:43:24.689Z,83.42
2018-03-04T03:43:25.289Z,83.51
2018-03-04T03:43:25.886Z,83.42
2018-03-04T03:43:26.485Z,83.33
2018-03-04T03:44:20.575Z,82.85
2018-03-04T03:44:21.142Z,83.33
2018-03-04T03:44:21.737Z,83.42
2018-03-04T03:44:22.339Z,82.76
2018-03-04T03:44:22.937Z,83.23
2018-03-04T03:44:23.537Z,83.14
2018-03-04T03:44:24.136Z,82.95
2018-03-04T03:45:18.193Z,82.85
2018-03-04T03:45:18.789Z,82.66
2018-03-04T03:45:19.389Z,82.66
2018-03-04T03:45:19.990Z,82.57
2018-03-04T03:45:20.590Z,83.14
2018-03-04T03:45:21.190Z,82.76
2018-03-04T03:45:21.795Z,82.66
2018-03-04T03:46:15.843Z,83.51
2018-03-04T03:46:16.442Z,83.51
2018-03-04T03:46:17.041Z,83.42
2018-03-04T03:46:17.641Z,83.51
2018-03-04T03:46:18.240Z,83.23
2018-03-04T03:46:18.841Z,82.95
2018-03-04T03:46:19.440Z,83.42
2018-03-04T03:47:13.496Z,82.66
2018-03-04T03:47:14.094Z,82.85
2018-03-04T03:47:14.693Z,82.57
2018-03-04T03:47:15.293Z,82.76
2018-03-04T03:47:15.891Z,82.85
2018-03-04T03:47:16.492Z,83.14